sensor_id;sensor_type;location;lat;lon;timestamp;P1;durP1;ratioP1;P2;durP2;ratioP2
25663;SDS011;13522;50.018;20.014;2023-04-24T01:45:42;9.23;;;6.48;;
25663;SDS011;13522;50.018;20.014;2023-04-24T02:32:43;8.90;;;6.05;;
25663;SDS011;13522;50.018;20.014;2023-04-24T02:35:56;7.13;;;5.18;;
25663;SDS011;13522;50.018;20.014;2023-04-24T02:39:09;9.88;;;6.00;;
25663;SDS011;13522;50.018;20.014;2023-04-24T02:42:21;11.68;;;5.90;;
25663;SDS011;13522;50.018;20.014;2023-04-24T02:45:34;10.98;;;5.15;;
25663;SDS011;13522;50.018;20.014;2023-04-24T02:54:46;15.50;;;6.30;;
25663;SDS011;13522;50.018;20.014;2023-04-24T02:57:58;9.70;;;5.93;;
25663;SDS011;13522;50.018;20.014;2023-04-24T03:01:10;12.58;;;5.95;;
25663;SDS011;13522;50.018;20.014;2023-04-24T03:10:23;13.63;;;6.45;;
25663;SDS011;13522;50.018;20.014;2023-04-24T03:13:38;11.10;;;5.88;;
25663;SDS011;13522;50.018;20.014;2023-04-24T03:16:50;17.58;;;6.50;;
25663;SDS011;13522;50.018;20.014;2023-04-24T03:20:03;11.80;;;6.13;;
25663;SDS011;13522;50.018;20.014;2023-04-24T03:23:19;9.65;;;5.38;;
25663;SDS011;13522;50.018;20.014;2023-04-24T03:26:32;11.28;;;6.10;;
25663;SDS011;13522;50.018;20.014;2023-04-24T03:29:46;9.90;;;6.28;;
25663;SDS011;13522;50.018;20.014;2023-04-24T03:33:05;11.88;;;5.53;;
25663;SDS011;13522;50.018;20.014;2023-04-24T03:36:19;12.23;;;6.18;;
25663;SDS011;13522;50.018;20.014;2023-04-24T03:39:32;11.60;;;5.75;;
25663;SDS011;13522;50.018;20.014;2023-04-24T03:42:45;13.95;;;6.10;;
25663;SDS011;13522;50.018;20.014;2023-04-24T03:45:58;14.30;;;6.28;;
25663;SDS011;13522;50.018;20.014;2023-04-24T03:49:13;9.70;;;6.20;;
25663;SDS011;13522;50.018;20.014;2023-04-24T03:58:25;26.05;;;6.80;;
25663;SDS011;13522;50.018;20.014;2023-04-24T04:01:38;31.58;;;7.93;;
25663;SDS011;13522;50.018;20.014;2023-04-24T04:04:52;27.33;;;6.63;;
25663;SDS011;13522;50.018;20.014;2023-04-24T04:11:05;19.40;;;6.65;;
25663;SDS011;13522;50.018;20.014;2023-04-24T04:14:17;12.35;;;6.43;;
25663;SDS011;13522;50.018;20.014;2023-04-24T04:17:29;16.18;;;6.43;;
25663;SDS011;13522;50.018;20.014;2023-04-24T04:20:43;20.45;;;6.75;;
25663;SDS011;13522;50.018;20.014;2023-04-24T04:23:55;15.20;;;7.63;;
25663;SDS011;13522;50.018;20.014;2023-04-24T04:27:09;18.08;;;7.35;;
25663;SDS011;13522;50.018;20.014;2023-04-24T04:30:25;11.90;;;7.55;;
25663;SDS011;13522;50.018;20.014;2023-04-24T04:33:39;15.40;;;6.63;;
25663;SDS011;13522;50.018;20.014;2023-04-24T04:36:52;13.73;;;8.28;;
25663;SDS011;13522;50.018;20.014;2023-04-24T04:40:10;15.38;;;8.23;;
25663;SDS011;13522;50.018;20.014;2023-04-24T04:43:24;13.38;;;7.95;;
25663;SDS011;13522;50.018;20.014;2023-04-24T04:46:37;15.95;;;8.13;;
25663;SDS011;13522;50.018;20.014;2023-04-24T04:49:54;12.08;;;7.78;;
25663;SDS011;13522;50.018;20.014;2023-04-24T04:53:08;33.83;;;19.50;;
25663;SDS011;13522;50.018;20.014;2023-04-24T04:56:21;19.28;;;10.23;;
25663;SDS011;13522;50.018;20.014;2023-04-24T04:59:35;29.40;;;15.18;;
25663;SDS011;13522;50.018;20.014;2023-04-24T05:02:50;16.50;;;10.10;;
25663;SDS011;13522;50.018;20.014;2023-04-24T05:06:06;24.28;;;9.35;;
25663;SDS011;13522;50.018;20.014;2023-04-24T05:09:20;24.28;;;9.30;;
25663;SDS011;13522;50.018;20.014;2023-04-24T05:12:35;31.13;;;13.98;;
25663;SDS011;13522;50.018;20.014;2023-04-24T05:15:49;68.20;;;27.98;;
25663;SDS011;13522;50.018;20.014;2023-04-24T05:19:02;36.33;;;11.35;;
25663;SDS011;13522;50.018;20.014;2023-04-24T05:22:17;40.23;;;10.28;;
25663;SDS011;13522;50.018;20.014;2023-04-24T05:25:29;35.05;;;10.10;;
25663;SDS011;13522;50.018;20.014;2023-04-24T05:28:45;44.48;;;10.43;;
25663;SDS011;13522;50.018;20.014;2023-04-24T05:31:58;42.33;;;11.25;;
25663;SDS011;13522;50.018;20.014;2023-04-24T05:35:11;38.25;;;11.03;;
25663;SDS011;13522;50.018;20.014;2023-04-24T05:38:23;50.88;;;11.60;;
25663;SDS011;13522;50.018;20.014;2023-04-24T05:41:36;111.83;;;38.50;;
25663;SDS011;13522;50.018;20.014;2023-04-24T05:44:49;67.38;;;18.78;;
25663;SDS011;13522;50.018;20.014;2023-04-24T05:48:03;48.68;;;11.85;;
25663;SDS011;13522;50.018;20.014;2023-04-24T05:51:15;69.33;;;13.55;;
25663;SDS011;13522;50.018;20.014;2023-04-24T05:54:27;46.73;;;11.53;;
25663;SDS011;13522;50.018;20.014;2023-04-24T05:57:40;44.38;;;12.65;;
25663;SDS011;13522;50.018;20.014;2023-04-24T06:00:53;40.98;;;12.25;;
25663;SDS011;13522;50.018;20.014;2023-04-24T06:04:07;55.53;;;24.78;;
25663;SDS011;13522;50.018;20.014;2023-04-24T06:07:20;46.45;;;16.18;;
25663;SDS011;13522;50.018;20.014;2023-04-24T06:10:32;31.73;;;10.88;;
25663;SDS011;13522;50.018;20.014;2023-04-24T06:13:46;40.90;;;9.95;;
25663;SDS011;13522;50.018;20.014;2023-04-24T06:17:09;40.45;;;9.75;;
25663;SDS011;13522;50.018;20.014;2023-04-24T06:20:22;34.00;;;9.90;;
25663;SDS011;13522;50.018;20.014;2023-04-24T06:23:35;31.08;;;10.03;;
25663;SDS011;13522;50.018;20.014;2023-04-24T06:26:47;28.58;;;8.95;;
25663;SDS011;13522;50.018;20.014;2023-04-24T06:30:01;27.38;;;8.58;;
25663;SDS011;13522;50.018;20.014;2023-04-24T06:33:16;22.48;;;8.73;;
25663;SDS011;13522;50.018;20.014;2023-04-24T06:36:29;28.25;;;9.18;;
25663;SDS011;13522;50.018;20.014;2023-04-24T06:39:42;34.45;;;9.08;;
25663;SDS011;13522;50.018;20.014;2023-04-24T06:42:54;40.20;;;9.30;;
25663;SDS011;13522;50.018;20.014;2023-04-24T06:46:07;33.73;;;8.73;;
25663;SDS011;13522;50.018;20.014;2023-04-24T06:49:19;32.93;;;8.00;;
25663;SDS011;13522;50.018;20.014;2023-04-24T06:52:32;35.25;;;8.25;;
25663;SDS011;13522;50.018;20.014;2023-04-24T06:55:46;31.28;;;7.75;;
25663;SDS011;13522;50.018;20.014;2023-04-24T06:58:59;30.15;;;7.10;;
25663;SDS011;13522;50.018;20.014;2023-04-24T07:02:11;19.65;;;7.03;;
25663;SDS011;13522;50.018;20.014;2023-04-24T07:05:24;38.78;;;19.03;;
25663;SDS011;13522;50.018;20.014;2023-04-24T07:08:39;45.73;;;16.05;;
25663;SDS011;13522;50.018;20.014;2023-04-24T07:11:52;35.00;;;12.83;;
25663;SDS011;13522;50.018;20.014;2023-04-24T07:15:06;27.13;;;9.08;;
25663;SDS011;13522;50.018;20.014;2023-04-24T07:18:20;21.75;;;8.00;;
25663;SDS011;13522;50.018;20.014;2023-04-24T07:21:33;17.68;;;5.83;;
25663;SDS011;13522;50.018;20.014;2023-04-24T07:24:45;28.93;;;6.23;;
25663;SDS011;13522;50.018;20.014;2023-04-24T07:27:58;11.00;;;4.70;;
25663;SDS011;13522;50.018;20.014;2023-04-24T07:31:10;16.40;;;4.98;;
25663;SDS011;13522;50.018;20.014;2023-04-24T07:34:24;7.80;;;5.18;;
25663;SDS011;13522;50.018;20.014;2023-04-24T07:37:36;8.38;;;5.15;;
25663;SDS011;13522;50.018;20.014;2023-04-24T07:40:50;18.78;;;11.90;;
25663;SDS011;13522;50.018;20.014;2023-04-24T07:44:02;7.30;;;3.48;;
25663;SDS011;13522;50.018;20.014;2023-04-24T07:47:14;5.40;;;3.45;;
25663;SDS011;13522;50.018;20.014;2023-04-24T07:50:27;6.25;;;2.88;;
25663;SDS011;13522;50.018;20.014;2023-04-24T07:53:40;3.40;;;2.63;;
25663;SDS011;13522;50.018;20.014;2023-04-24T07:56:53;5.70;;;3.13;;
25663;SDS011;13522;50.018;20.014;2023-04-24T08:00:07;5.68;;;3.03;;
25663;SDS011;13522;50.018;20.014;2023-04-24T08:03:22;7.65;;;3.65;;
25663;SDS011;13522;50.018;20.014;2023-04-24T08:06:34;7.63;;;3.38;;
25663;SDS011;13522;50.018;20.014;2023-04-24T08:09:47;7.50;;;3.15;;
25663;SDS011;13522;50.018;20.014;2023-04-24T08:12:59;5.78;;;2.80;;
25663;SDS011;13522;50.018;20.014;2023-04-24T08:16:11;7.53;;;3.18;;
25663;SDS011;13522;50.018;20.014;2023-04-24T08:19:24;7.15;;;3.13;;
25663;SDS011;13522;50.018;20.014;2023-04-24T08:22:36;6.45;;;2.80;;
25663;SDS011;13522;50.018;20.014;2023-04-24T08:25:50;5.35;;;3.15;;
25663;SDS011;13522;50.018;20.014;2023-04-24T08:29:04;4.00;;;2.80;;
25663;SDS011;13522;50.018;20.014;2023-04-24T08:32:18;6.60;;;3.43;;
25663;SDS011;13522;50.018;20.014;2023-04-24T08:35:32;6.50;;;3.30;;
25663;SDS011;13522;50.018;20.014;2023-04-24T08:38:44;6.45;;;3.05;;
25663;SDS011;13522;50.018;20.014;2023-04-24T08:41:57;25.40;;;14.08;;
25663;SDS011;13522;50.018;20.014;2023-04-24T08:45:12;47.88;;;31.83;;
25663;SDS011;13522;50.018;20.014;2023-04-24T08:48:25;8.28;;;5.70;;
25663;SDS011;13522;50.018;20.014;2023-04-24T08:51:38;7.75;;;3.38;;
25663;SDS011;13522;50.018;20.014;2023-04-24T08:54:52;4.98;;;3.05;;
25663;SDS011;13522;50.018;20.014;2023-04-24T08:58:07;6.65;;;2.88;;
25663;SDS011;13522;50.018;20.014;2023-04-24T09:01:19;9.20;;;3.40;;
25663;SDS011;13522;50.018;20.014;2023-04-24T09:04:35;6.83;;;3.53;;
25663;SDS011;13522;50.018;20.014;2023-04-24T09:07:49;10.65;;;7.05;;
25663;SDS011;13522;50.018;20.014;2023-04-24T09:11:04;49.88;;;31.88;;
25663;SDS011;13522;50.018;20.014;2023-04-24T09:14:18;6.68;;;3.25;;
25663;SDS011;13522;50.018;20.014;2023-04-24T09:17:31;4.95;;;2.90;;
25663;SDS011;13522;50.018;20.014;2023-04-24T09:21:00;6.43;;;3.70;;
25663;SDS011;13522;50.018;20.014;2023-04-24T09:24:16;5.45;;;2.75;;
25663;SDS011;13522;50.018;20.014;2023-04-24T09:27:30;9.70;;;4.85;;
25663;SDS011;13522;50.018;20.014;2023-04-24T09:30:43;4.93;;;2.85;;
25663;SDS011;13522;50.018;20.014;2023-04-24T09:33:57;6.33;;;2.80;;
25663;SDS011;13522;50.018;20.014;2023-04-24T09:37:12;5.83;;;3.15;;
25663;SDS011;13522;50.018;20.014;2023-04-24T09:40:43;5.23;;;2.80;;
25663;SDS011;13522;50.018;20.014;2023-04-24T09:43:56;7.65;;;2.75;;
25663;SDS011;13522;50.018;20.014;2023-04-24T09:47:13;5.60;;;3.05;;
25663;SDS011;13522;50.018;20.014;2023-04-24T09:50:26;7.48;;;5.50;;
25663;SDS011;13522;50.018;20.014;2023-04-24T09:53:44;6.23;;;3.38;;
25663;SDS011;13522;50.018;20.014;2023-04-24T09:56:58;4.20;;;2.80;;
25663;SDS011;13522;50.018;20.014;2023-04-24T10:00:12;4.15;;;2.68;;
25663;SDS011;13522;50.018;20.014;2023-04-24T10:03:30;4.53;;;2.33;;
25663;SDS011;13522;50.018;20.014;2023-04-24T10:06:45;5.45;;;2.43;;
25663;SDS011;13522;50.018;20.014;2023-04-24T10:09:59;6.88;;;4.40;;
25663;SDS011;13522;50.018;20.014;2023-04-24T10:13:12;5.63;;;3.08;;
25663;SDS011;13522;50.018;20.014;2023-04-24T10:16:25;4.80;;;2.65;;
25663;SDS011;13522;50.018;20.014;2023-04-24T10:19:38;6.83;;;3.70;;
25663;SDS011;13522;50.018;20.014;2023-04-24T10:22:53;5.50;;;3.10;;
25663;SDS011;13522;50.018;20.014;2023-04-24T10:26:06;25.03;;;18.20;;
25663;SDS011;13522;50.018;20.014;2023-04-24T10:29:21;8.28;;;3.48;;
25663;SDS011;13522;50.018;20.014;2023-04-24T10:32:34;6.23;;;2.95;;
25663;SDS011;13522;50.018;20.014;2023-04-24T10:35:47;10.00;;;2.78;;
25663;SDS011;13522;50.018;20.014;2023-04-24T10:39:03;9.45;;;2.75;;
25663;SDS011;13522;50.018;20.014;2023-04-24T10:42:20;5.23;;;2.80;;
25663;SDS011;13522;50.018;20.014;2023-04-24T10:45:32;6.85;;;2.43;;
25663;SDS011;13522;50.018;20.014;2023-04-24T10:48:45;12.00;;;6.55;;
25663;SDS011;13522;50.018;20.014;2023-04-24T10:52:06;9.25;;;5.15;;
25663;SDS011;13522;50.018;20.014;2023-04-24T10:58:57;6.13;;;2.97;;
25663;SDS011;13522;50.018;20.014;2023-04-24T11:02:10;6.75;;;3.10;;
25663;SDS011;13522;50.018;20.014;2023-04-24T11:05:48;5.40;;;3.43;;
25663;SDS011;13522;50.018;20.014;2023-04-24T11:09:10;5.20;;;3.20;;
25663;SDS011;13522;50.018;20.014;2023-04-24T11:12:25;4.85;;;3.30;;
25663;SDS011;13522;50.018;20.014;2023-04-24T11:15:42;6.18;;;2.80;;
25663;SDS011;13522;50.018;20.014;2023-04-24T11:18:59;5.40;;;3.05;;
25663;SDS011;13522;50.018;20.014;2023-04-24T11:22:15;6.23;;;2.90;;
25663;SDS011;13522;50.018;20.014;2023-04-24T11:25:28;8.43;;;3.10;;
25663;SDS011;13522;50.018;20.014;2023-04-24T11:28:46;5.20;;;3.10;;
25663;SDS011;13522;50.018;20.014;2023-04-24T11:31:59;3.10;;;2.40;;
25663;SDS011;13522;50.018;20.014;2023-04-24T11:35:30;2.80;;;2.43;;
25663;SDS011;13522;50.018;20.014;2023-04-24T11:38:49;8.95;;;4.38;;
25663;SDS011;13522;50.018;20.014;2023-04-24T11:42:03;7.98;;;5.73;;
25663;SDS011;13522;50.018;20.014;2023-04-24T11:45:17;8.08;;;3.55;;
25663;SDS011;13522;50.018;20.014;2023-04-24T11:48:35;6.25;;;4.65;;
25663;SDS011;13522;50.018;20.014;2023-04-24T11:51:48;9.55;;;4.25;;
25663;SDS011;13522;50.018;20.014;2023-04-24T11:55:05;9.85;;;3.75;;
25663;SDS011;13522;50.018;20.014;2023-04-24T11:58:36;9.25;;;2.93;;
25663;SDS011;13522;50.018;20.014;2023-04-24T12:01:49;6.67;;;2.83;;
25663;SDS011;13522;50.018;20.014;2023-04-24T12:05:01;5.15;;;3.23;;
25663;SDS011;13522;50.018;20.014;2023-04-24T12:08:27;4.73;;;3.30;;
25663;SDS011;13522;50.018;20.014;2023-04-24T12:11:53;5.70;;;3.13;;
25663;SDS011;13522;50.018;20.014;2023-04-24T12:15:08;4.13;;;2.93;;
25663;SDS011;13522;50.018;20.014;2023-04-24T12:18:23;9.60;;;3.33;;
25663;SDS011;13522;50.018;20.014;2023-04-24T12:21:36;7.70;;;3.85;;
25663;SDS011;13522;50.018;20.014;2023-04-24T12:25:00;5.15;;;3.40;;
25663;SDS011;13522;50.018;20.014;2023-04-24T12:31:25;6.73;;;3.95;;
25663;SDS011;13522;50.018;20.014;2023-04-24T12:34:39;6.80;;;3.75;;
25663;SDS011;13522;50.018;20.014;2023-04-24T12:37:53;10.40;;;5.20;;
25663;SDS011;13522;50.018;20.014;2023-04-24T12:41:08;6.78;;;3.80;;
25663;SDS011;13522;50.018;20.014;2023-04-24T12:44:30;8.23;;;4.10;;
25663;SDS011;13522;50.018;20.014;2023-04-24T12:47:43;7.78;;;4.08;;
25663;SDS011;13522;50.018;20.014;2023-04-24T12:50:58;9.18;;;4.03;;
25663;SDS011;13522;50.018;20.014;2023-04-24T12:54:10;8.15;;;4.03;;
25663;SDS011;13522;50.018;20.014;2023-04-24T12:57:22;14.65;;;6.68;;
25663;SDS011;13522;50.018;20.014;2023-04-24T13:00:36;15.63;;;8.25;;
25663;SDS011;13522;50.018;20.014;2023-04-24T13:03:50;10.13;;;5.73;;
25663;SDS011;13522;50.018;20.014;2023-04-24T13:07:02;9.48;;;6.08;;
25663;SDS011;13522;50.018;20.014;2023-04-24T13:10:15;11.60;;;4.98;;
25663;SDS011;13522;50.018;20.014;2023-04-24T13:13:27;14.03;;;4.93;;
25663;SDS011;13522;50.018;20.014;2023-04-24T13:16:39;10.60;;;4.98;;
25663;SDS011;13522;50.018;20.014;2023-04-24T13:19:54;11.80;;;4.93;;
25663;SDS011;13522;50.018;20.014;2023-04-24T13:23:07;9.73;;;4.38;;
25663;SDS011;13522;50.018;20.014;2023-04-24T13:26:19;8.63;;;3.93;;
25663;SDS011;13522;50.018;20.014;2023-04-24T13:29:31;7.83;;;4.30;;
25663;SDS011;13522;50.018;20.014;2023-04-24T13:32:44;6.40;;;3.80;;
25663;SDS011;13522;50.018;20.014;2023-04-24T13:35:57;10.90;;;3.63;;
25663;SDS011;13522;50.018;20.014;2023-04-24T13:39:09;8.53;;;3.70;;
25663;SDS011;13522;50.018;20.014;2023-04-24T13:42:22;8.38;;;4.10;;
25663;SDS011;13522;50.018;20.014;2023-04-24T13:45:34;6.78;;;4.00;;
25663;SDS011;13522;50.018;20.014;2023-04-24T13:48:46;8.05;;;4.03;;
25663;SDS011;13522;50.018;20.014;2023-04-24T13:51:59;6.95;;;3.70;;
25663;SDS011;13522;50.018;20.014;2023-04-24T13:55:15;7.40;;;4.00;;
25663;SDS011;13522;50.018;20.014;2023-04-24T13:58:27;5.98;;;3.45;;
25663;SDS011;13522;50.018;20.014;2023-04-24T14:01:40;5.40;;;3.50;;
25663;SDS011;13522;50.018;20.014;2023-04-24T14:04:53;10.88;;;6.50;;
25663;SDS011;13522;50.018;20.014;2023-04-24T14:08:06;7.18;;;3.23;;
25663;SDS011;13522;50.018;20.014;2023-04-24T14:11:18;5.18;;;3.18;;
25663;SDS011;13522;50.018;20.014;2023-04-24T14:14:31;5.78;;;2.60;;
25663;SDS011;13522;50.018;20.014;2023-04-24T14:17:43;4.00;;;2.58;;
25663;SDS011;13522;50.018;20.014;2023-04-24T14:20:56;4.08;;;2.45;;
25663;SDS011;13522;50.018;20.014;2023-04-24T14:24:08;6.15;;;2.55;;
25663;SDS011;13522;50.018;20.014;2023-04-24T14:27:20;8.28;;;2.88;;
25663;SDS011;13522;50.018;20.014;2023-04-24T14:30:33;4.45;;;2.60;;
25663;SDS011;13522;50.018;20.014;2023-04-24T14:33:45;4.18;;;2.90;;
25663;SDS011;13522;50.018;20.014;2023-04-24T14:36:57;5.25;;;3.15;;
25663;SDS011;13522;50.018;20.014;2023-04-24T14:40:10;5.28;;;3.03;;
25663;SDS011;13522;50.018;20.014;2023-04-24T14:43:25;4.13;;;2.78;;
25663;SDS011;13522;50.018;20.014;2023-04-24T14:46:39;9.03;;;3.00;;
25663;SDS011;13522;50.018;20.014;2023-04-24T14:49:52;5.50;;;2.65;;
25663;SDS011;13522;50.018;20.014;2023-04-24T14:53:04;4.93;;;3.05;;
25663;SDS011;13522;50.018;20.014;2023-04-24T14:56:17;11.38;;;3.68;;
25663;SDS011;13522;50.018;20.014;2023-04-24T14:59:29;4.00;;;2.45;;
25663;SDS011;13522;50.018;20.014;2023-04-24T15:02:42;3.58;;;2.53;;
25663;SDS011;13522;50.018;20.014;2023-04-24T15:05:55;7.68;;;2.73;;
25663;SDS011;13522;50.018;20.014;2023-04-24T15:09:07;6.45;;;2.50;;
25663;SDS011;13522;50.018;20.014;2023-04-24T15:12:19;6.08;;;2.85;;
25663;SDS011;13522;50.018;20.014;2023-04-24T15:15:33;6.45;;;2.85;;
25663;SDS011;13522;50.018;20.014;2023-04-24T15:18:45;8.03;;;2.88;;
25663;SDS011;13522;50.018;20.014;2023-04-24T15:21:57;5.15;;;3.10;;
25663;SDS011;13522;50.018;20.014;2023-04-24T15:25:10;6.75;;;3.20;;
25663;SDS011;13522;50.018;20.014;2023-04-24T15:28:22;3.98;;;3.13;;
25663;SDS011;13522;50.018;20.014;2023-04-24T15:31:34;5.63;;;3.28;;
25663;SDS011;13522;50.018;20.014;2023-04-24T15:34:47;5.55;;;3.48;;
25663;SDS011;13522;50.018;20.014;2023-04-24T15:38:02;4.80;;;3.00;;
25663;SDS011;13522;50.018;20.014;2023-04-24T15:41:14;23.60;;;15.15;;
25663;SDS011;13522;50.018;20.014;2023-04-24T15:44:26;8.10;;;5.10;;
25663;SDS011;13522;50.018;20.014;2023-04-24T15:47:39;7.63;;;3.33;;
25663;SDS011;13522;50.018;20.014;2023-04-24T15:50:51;4.85;;;3.08;;
25663;SDS011;13522;50.018;20.014;2023-04-24T15:54:04;11.95;;;4.53;;
25663;SDS011;13522;50.018;20.014;2023-04-24T15:57:17;6.15;;;3.00;;
25663;SDS011;13522;50.018;20.014;2023-04-24T16:00:30;9.55;;;4.45;;
25663;SDS011;13522;50.018;20.014;2023-04-24T16:03:42;6.70;;;2.85;;
25663;SDS011;13522;50.018;20.014;2023-04-24T16:06:55;9.83;;;3.10;;
25663;SDS011;13522;50.018;20.014;2023-04-24T16:10:09;5.95;;;2.70;;
25663;SDS011;13522;50.018;20.014;2023-04-24T16:13:21;3.73;;;2.70;;
25663;SDS011;13522;50.018;20.014;2023-04-24T16:16:35;6.93;;;2.70;;
25663;SDS011;13522;50.018;20.014;2023-04-24T16:19:47;7.55;;;2.90;;
25663;SDS011;13522;50.018;20.014;2023-04-24T16:23:00;4.88;;;3.05;;
25663;SDS011;13522;50.018;20.014;2023-04-24T16:26:12;7.58;;;3.30;;
25663;SDS011;13522;50.018;20.014;2023-04-24T16:29:24;18.03;;;3.78;;
25663;SDS011;13522;50.018;20.014;2023-04-24T16:32:38;6.43;;;3.58;;
25663;SDS011;13522;50.018;20.014;2023-04-24T16:35:50;7.05;;;4.20;;
25663;SDS011;13522;50.018;20.014;2023-04-24T16:39:03;6.90;;;3.63;;
25663;SDS011;13522;50.018;20.014;2023-04-24T16:42:16;8.98;;;3.80;;
25663;SDS011;13522;50.018;20.014;2023-04-24T16:45:28;7.38;;;4.00;;
25663;SDS011;13522;50.018;20.014;2023-04-24T16:48:40;6.40;;;3.98;;
25663;SDS011;13522;50.018;20.014;2023-04-24T16:51:54;5.43;;;3.98;;
25663;SDS011;13522;50.018;20.014;2023-04-24T16:55:07;5.80;;;4.03;;
25663;SDS011;13522;50.018;20.014;2023-04-24T16:58:20;14.10;;;9.28;;
25663;SDS011;13522;50.018;20.014;2023-04-24T17:01:32;9.50;;;5.10;;
25663;SDS011;13522;50.018;20.014;2023-04-24T17:04:44;10.18;;;4.70;;
25663;SDS011;13522;50.018;20.014;2023-04-24T17:07:57;6.90;;;4.78;;
25663;SDS011;13522;50.018;20.014;2023-04-24T17:11:09;7.93;;;4.83;;
25663;SDS011;13522;50.018;20.014;2023-04-24T17:14:22;8.65;;;5.00;;
25663;SDS011;13522;50.018;20.014;2023-04-24T17:17:34;10.45;;;4.98;;
25663;SDS011;13522;50.018;20.014;2023-04-24T17:20:47;8.10;;;4.75;;
25663;SDS011;13522;50.018;20.014;2023-04-24T17:23:59;7.80;;;4.90;;
25663;SDS011;13522;50.018;20.014;2023-04-24T17:27:12;5.60;;;4.48;;
25663;SDS011;13522;50.018;20.014;2023-04-24T17:30:24;12.93;;;5.83;;
25663;SDS011;13522;50.018;20.014;2023-04-24T17:33:36;7.83;;;5.28;;
25663;SDS011;13522;50.018;20.014;2023-04-24T17:36:49;12.55;;;5.55;;
25663;SDS011;13522;50.018;20.014;2023-04-24T17:40:01;10.85;;;5.35;;
25663;SDS011;13522;50.018;20.014;2023-04-24T17:43:16;9.18;;;5.90;;
25663;SDS011;13522;50.018;20.014;2023-04-24T17:46:28;10.08;;;5.95;;
25663;SDS011;13522;50.018;20.014;2023-04-24T17:49:41;9.65;;;5.60;;
25663;SDS011;13522;50.018;20.014;2023-04-24T17:52:53;10.40;;;7.38;;
25663;SDS011;13522;50.018;20.014;2023-04-24T17:56:06;89.58;;;48.25;;
25663;SDS011;13522;50.018;20.014;2023-04-24T17:59:19;31.93;;;20.43;;
25663;SDS011;13522;50.018;20.014;2023-04-24T18:02:31;15.20;;;10.53;;
25663;SDS011;13522;50.018;20.014;2023-04-24T18:05:44;12.40;;;7.03;;
25663;SDS011;13522;50.018;20.014;2023-04-24T18:08:57;10.63;;;6.33;;
25663;SDS011;13522;50.018;20.014;2023-04-24T18:12:09;10.13;;;6.93;;
25663;SDS011;13522;50.018;20.014;2023-04-24T18:15:22;17.43;;;6.60;;
25663;SDS011;13522;50.018;20.014;2023-04-24T18:18:35;13.60;;;6.75;;
25663;SDS011;13522;50.018;20.014;2023-04-24T18:21:47;17.70;;;7.98;;
25663;SDS011;13522;50.018;20.014;2023-04-24T18:24:59;20.40;;;11.28;;
25663;SDS011;13522;50.018;20.014;2023-04-24T18:28:13;17.85;;;11.05;;
25663;SDS011;13522;50.018;20.014;2023-04-24T18:31:26;13.55;;;8.38;;
25663;SDS011;13522;50.018;20.014;2023-04-24T18:34:38;23.13;;;11.03;;
25663;SDS011;13522;50.018;20.014;2023-04-24T18:37:51;18.30;;;9.48;;
25663;SDS011;13522;50.018;20.014;2023-04-24T18:41:03;16.40;;;7.65;;
25663;SDS011;13522;50.018;20.014;2023-04-24T18:44:17;18.10;;;10.95;;
25663;SDS011;13522;50.018;20.014;2023-04-24T18:47:30;15.53;;;8.05;;
25663;SDS011;13522;50.018;20.014;2023-04-24T18:50:42;12.45;;;8.50;;
25663;SDS011;13522;50.018;20.014;2023-04-24T18:53:54;17.03;;;8.65;;
25663;SDS011;13522;50.018;20.014;2023-04-24T18:57:07;12.15;;;6.18;;
25663;SDS011;13522;50.018;20.014;2023-04-24T19:00:20;8.85;;;6.23;;
25663;SDS011;13522;50.018;20.014;2023-04-24T19:03:33;10.65;;;5.70;;
25663;SDS011;13522;50.018;20.014;2023-04-24T19:06:45;13.98;;;7.58;;
25663;SDS011;13522;50.018;20.014;2023-04-24T19:09:58;31.95;;;21.73;;
25663;SDS011;13522;50.018;20.014;2023-04-24T19:13:10;14.35;;;9.55;;
25663;SDS011;13522;50.018;20.014;2023-04-24T19:16:23;11.05;;;5.88;;
25663;SDS011;13522;50.018;20.014;2023-04-24T19:19:36;29.83;;;18.20;;
25663;SDS011;13522;50.018;20.014;2023-04-24T19:22:48;15.18;;;9.08;;
25663;SDS011;13522;50.018;20.014;2023-04-24T19:26:02;14.25;;;8.80;;
25663;SDS011;13522;50.018;20.014;2023-04-24T19:29:17;12.48;;;7.43;;
25663;SDS011;13522;50.018;20.014;2023-04-24T19:32:29;17.13;;;9.28;;
25663;SDS011;13522;50.018;20.014;2023-04-24T19:35:42;14.48;;;9.40;;
25663;SDS011;13522;50.018;20.014;2023-04-24T19:38:54;9.05;;;6.35;;
25663;SDS011;13522;50.018;20.014;2023-04-24T19:42:07;11.88;;;7.73;;
25663;SDS011;13522;50.018;20.014;2023-04-24T19:45:22;10.90;;;6.23;;
25663;SDS011;13522;50.018;20.014;2023-04-24T19:48:34;9.65;;;5.50;;
25663;SDS011;13522;50.018;20.014;2023-04-24T19:51:48;8.68;;;5.93;;
25663;SDS011;13522;50.018;20.014;2023-04-24T19:55:01;7.68;;;5.50;;
25663;SDS011;13522;50.018;20.014;2023-04-24T19:58:15;9.33;;;5.83;;
25663;SDS011;13522;50.018;20.014;2023-04-24T20:01:28;8.45;;;6.00;;
25663;SDS011;13522;50.018;20.014;2023-04-24T20:04:42;13.18;;;6.60;;
25663;SDS011;13522;50.018;20.014;2023-04-24T20:07:55;12.93;;;5.88;;
25663;SDS011;13522;50.018;20.014;2023-04-24T20:11:08;7.90;;;6.15;;
25663;SDS011;13522;50.018;20.014;2023-04-24T20:14:21;10.85;;;7.33;;
25663;SDS011;13522;50.018;20.014;2023-04-24T20:17:35;14.43;;;7.28;;
25663;SDS011;13522;50.018;20.014;2023-04-24T20:20:48;10.93;;;7.80;;
25663;SDS011;13522;50.018;20.014;2023-04-24T20:24:03;11.40;;;8.30;;
25663;SDS011;13522;50.018;20.014;2023-04-24T20:27:17;12.00;;;7.93;;
25663;SDS011;13522;50.018;20.014;2023-04-24T20:30:30;15.58;;;11.30;;
25663;SDS011;13522;50.018;20.014;2023-04-24T20:33:42;18.95;;;12.65;;
25663;SDS011;13522;50.018;20.014;2023-04-24T20:36:54;15.18;;;11.28;;
25663;SDS011;13522;50.018;20.014;2023-04-24T20:40:08;13.05;;;9.93;;
25663;SDS011;13522;50.018;20.014;2023-04-24T20:43:22;15.30;;;9.70;;
25663;SDS011;13522;50.018;20.014;2023-04-24T20:46:35;19.25;;;9.85;;
25663;SDS011;13522;50.018;20.014;2023-04-24T20:49:47;16.38;;;10.45;;
25663;SDS011;13522;50.018;20.014;2023-04-24T20:53:00;13.75;;;9.65;;
25663;SDS011;13522;50.018;20.014;2023-04-24T20:56:13;14.05;;;9.30;;
25663;SDS011;13522;50.018;20.014;2023-04-24T20:59:25;11.93;;;8.53;;
25663;SDS011;13522;50.018;20.014;2023-04-24T21:02:38;13.43;;;7.95;;
25663;SDS011;13522;50.018;20.014;2023-04-24T21:05:51;12.98;;;8.83;;
25663;SDS011;13522;50.018;20.014;2023-04-24T21:09:03;12.43;;;8.68;;
25663;SDS011;13522;50.018;20.014;2023-04-24T21:12:17;13.75;;;9.00;;
25663;SDS011;13522;50.018;20.014;2023-04-24T21:15:29;13.63;;;8.70;;
25663;SDS011;13522;50.018;20.014;2023-04-24T21:18:42;14.65;;;9.48;;
25663;SDS011;13522;50.018;20.014;2023-04-24T21:21:55;15.50;;;10.18;;
25663;SDS011;13522;50.018;20.014;2023-04-24T21:25:09;14.18;;;9.78;;
25663;SDS011;13522;50.018;20.014;2023-04-24T21:28:21;12.88;;;9.15;;
25663;SDS011;13522;50.018;20.014;2023-04-24T21:31:34;14.18;;;9.43;;
25663;SDS011;13522;50.018;20.014;2023-04-24T21:34:46;14.43;;;9.73;;
25663;SDS011;13522;50.018;20.014;2023-04-24T21:37:59;14.55;;;10.18;;
25663;SDS011;13522;50.018;20.014;2023-04-24T21:41:11;17.65;;;10.70;;
25663;SDS011;13522;50.018;20.014;2023-04-24T21:44:24;17.13;;;11.48;;
25663;SDS011;13522;50.018;20.014;2023-04-24T21:47:36;16.18;;;11.05;;
25663;SDS011;13522;50.018;20.014;2023-04-24T21:50:49;21.98;;;12.28;;
25663;SDS011;13522;50.018;20.014;2023-04-24T21:54:01;21.58;;;12.05;;